createdAt,value
2023-01-17T00:01:18.619Z,1.07
2023-01-17T00:04:10.957Z,1.33
2023-01-17T00:07:02.574Z,0.93
2023-01-17T00:09:54.227Z,0.70
2023-01-17T00:12:28.991Z,0.40
2023-01-17T00:15:02.495Z,1.50
2023-01-17T00:17:35.705Z,1.17
2023-01-17T00:20:32.014Z,1.17
2023-01-17T00:23:27.452Z,0.60
2023-01-17T00:26:03.714Z,0.60
2023-01-17T00:28:41.696Z,0.90
2023-01-17T00:31:15.713Z,1.47
2023-01-17T00:33:48.923Z,1.40
2023-01-17T00:36:22.135Z,0.60
2023-01-17T00:38:55.271Z,0.80
2023-01-17T00:41:29.557Z,0.80
2023-01-17T00:44:21.180Z,0.50
2023-01-17T00:47:13.270Z,0.50
2023-01-17T00:50:05.440Z,0.83
2023-01-17T00:52:57.533Z,0.43
2023-01-17T00:55:49.606Z,0.50
2023-01-17T00:58:41.553Z,0.50
2023-01-17T01:01:33.775Z,1.07
2023-01-17T01:04:25.704Z,0.50
2023-01-17T01:07:17.744Z,1.27
2023-01-17T01:10:09.674Z,2.53
2023-01-17T01:13:01.671Z,0.50
2023-01-17T01:15:53.931Z,0.60
2023-01-17T01:18:46.051Z,0.50
2023-01-17T01:21:38.271Z,0.50
2023-01-17T01:24:30.392Z,0.40
2023-01-17T01:27:22.458Z,0.90
2023-01-17T01:30:14.604Z,0.40
2023-01-17T01:33:06.733Z,1.17
2023-01-17T01:35:41.890Z,0.40
2023-01-17T01:38:15.344Z,0.40
2023-01-17T01:40:50.273Z,0.40
2023-01-17T01:43:42.531Z,0.40
2023-01-17T01:46:24.637Z,0.53
2023-01-17T01:49:08.164Z,2.13
2023-01-17T01:51:50.809Z,0.70
2023-01-17T01:54:26.274Z,0.80
2023-01-17T01:57:01.720Z,0.50
2023-01-17T01:59:36.101Z,0.50
2023-01-17T02:02:09.441Z,0.77
2023-01-17T02:04:43.511Z,0.50
2023-01-17T02:07:22.723Z,0.57
2023-01-17T02:09:55.939Z,0.70
2023-01-17T02:12:29.288Z,0.50
2023-01-17T02:15:03.130Z,1.47
2023-01-17T02:17:50.983Z,0.50
2023-01-17T02:20:24.186Z,0.40
2023-01-17T02:22:57.401Z,0.70
2023-01-17T02:25:33.437Z,0.40
2023-01-17T02:28:06.591Z,0.50
2023-01-17T02:30:46.022Z,0.50
2023-01-17T02:33:19.250Z,0.50
2023-01-17T02:35:57.041Z,0.60
2023-01-17T02:38:42.609Z,0.40
2023-01-17T02:41:18.549Z,0.60
2023-01-17T02:43:52.347Z,0.70
2023-01-17T02:46:25.634Z,0.63
2023-01-17T02:49:00.381Z,0.77
2023-01-17T02:51:53.832Z,0.60
2023-01-17T02:54:33.291Z,0.40
2023-01-17T02:57:25.316Z,0.50
2023-01-17T03:00:01.673Z,0.40
2023-01-17T03:02:53.644Z,0.50
2023-01-17T03:05:37.745Z,0.40
2023-01-17T03:08:12.809Z,0.40
2023-01-17T03:10:46.255Z,0.50
2023-01-17T03:13:19.509Z,0.50
2023-01-17T03:15:52.773Z,0.40
2023-01-17T03:18:25.941Z,0.50
2023-01-17T03:20:59.196Z,0.40
2023-01-17T03:23:32.405Z,0.50
2023-01-17T03:26:05.719Z,0.40
2023-01-17T03:28:39.066Z,0.50
2023-01-17T03:31:19.994Z,0.50
2023-01-17T03:33:53.374Z,0.50
2023-01-17T03:36:26.530Z,0.50
2023-01-17T03:38:59.876Z,0.50
2023-01-17T03:41:33.280Z,0.40
2023-01-17T03:44:06.641Z,0.67
2023-01-17T03:46:39.863Z,0.40
2023-01-17T03:49:13.073Z,0.50
2023-01-17T03:51:46.408Z,0.80
2023-01-17T03:54:19.627Z,0.50
2023-01-17T03:56:52.847Z,0.40
2023-01-17T03:59:26.109Z,0.50
2023-01-17T04:01:59.355Z,1.00
2023-01-17T04:04:32.606Z,0.50
2023-01-17T04:07:05.954Z,0.40
2023-01-17T04:09:39.242Z,0.50
2023-01-17T04:12:12.465Z,0.50
2023-01-17T04:14:45.722Z,0.60
2023-01-17T04:17:20.192Z,0.50
2023-01-17T04:19:53.534Z,0.50
2023-01-17T04:22:26.772Z,0.50
2023-01-17T04:24:59.959Z,0.40
2023-01-17T04:27:33.173Z,0.40
2023-01-17T04:30:06.579Z,0.90
2023-01-17T04:32:39.876Z,0.40
2023-01-17T04:35:13.079Z,0.57
2023-01-17T04:37:46.294Z,0.90
2023-01-17T04:40:19.616Z,0.40
2023-01-17T04:42:54.286Z,0.40
2023-01-17T04:45:27.596Z,0.40
2023-01-17T04:48:06.887Z,0.90
2023-01-17T04:50:40.578Z,1.03
2023-01-17T04:53:13.852Z,0.50
2023-01-17T04:55:47.385Z,0.40
2023-01-17T04:58:20.750Z,1.20
2023-01-17T05:00:54.938Z,0.50
2023-01-17T05:03:29.474Z,0.40
2023-01-17T05:06:02.886Z,0.70
2023-01-17T05:08:36.143Z,0.50
2023-01-17T05:11:09.305Z,0.50
2023-01-17T05:13:42.549Z,0.97
2023-01-17T05:16:18.321Z,1.10
2023-01-17T05:18:53.093Z,0.40
2023-01-17T05:21:26.353Z,0.40
2023-01-17T05:23:59.614Z,0.70
2023-01-17T05:26:32.848Z,0.50
2023-01-17T05:29:06.326Z,2.00
2023-01-17T05:31:39.488Z,0.70
2023-01-17T05:34:12.764Z,0.50
2023-01-17T05:36:45.964Z,0.70
2023-01-17T05:39:19.283Z,0.50
2023-01-17T05:41:52.712Z,0.40
2023-01-17T05:44:27.626Z,0.60
2023-01-17T05:47:00.996Z,0.50
2023-01-17T05:49:34.439Z,0.70
2023-01-17T05:52:07.666Z,0.60
2023-01-17T05:54:40.909Z,0.50
2023-01-17T05:57:14.201Z,0.70
2023-01-17T05:59:47.464Z,0.67
2023-01-17T06:02:20.705Z,0.60
2023-01-17T06:04:54.047Z,0.50
2023-01-17T06:07:27.374Z,0.40
2023-01-17T06:10:00.625Z,0.50
2023-01-17T06:12:33.833Z,0.63
2023-01-17T06:15:07.347Z,0.40
2023-01-17T06:17:40.800Z,0.40
2023-01-17T06:20:14.023Z,0.50
2023-01-17T06:22:47.344Z,0.80
2023-01-17T06:25:20.516Z,0.40
2023-01-17T06:27:55.302Z,1.60
2023-01-17T06:30:28.545Z,0.40
2023-01-17T06:33:01.734Z,0.70
2023-01-17T06:35:34.969Z,0.50
2023-01-17T06:38:09.891Z,0.50
2023-01-17T06:40:43.161Z,0.40
2023-01-17T06:43:16.428Z,0.40
2023-01-17T06:45:51.306Z,0.40
2023-01-17T06:48:24.688Z,0.50
2023-01-17T06:50:58.339Z,0.50
2023-01-17T06:53:31.577Z,0.73
2023-01-17T06:56:04.842Z,1.83
2023-01-17T06:58:38.112Z,0.40
2023-01-17T07:01:12.648Z,0.50
2023-01-17T07:03:46.087Z,0.60
2023-01-17T07:06:19.718Z,0.53
2023-01-17T07:08:53.315Z,0.40
2023-01-17T07:11:27.644Z,0.40
2023-01-17T07:14:00.851Z,0.50
2023-01-17T07:16:35.003Z,0.50
2023-01-17T07:19:08.306Z,1.17
2023-01-17T07:21:41.541Z,0.50
2023-01-17T07:24:14.735Z,0.50
2023-01-17T07:26:51.337Z,0.47
2023-01-17T07:29:24.536Z,0.40
2023-01-17T07:31:57.800Z,0.50
2023-01-17T07:34:30.999Z,0.77
2023-01-17T07:37:04.190Z,0.60
2023-01-17T07:39:37.869Z,0.67
2023-01-17T07:42:11.131Z,0.40
2023-01-17T07:44:45.173Z,0.40
2023-01-17T07:47:18.459Z,0.50
2023-01-17T07:49:51.675Z,0.40
2023-01-17T07:52:24.991Z,0.87
2023-01-17T07:54:58.172Z,0.53
2023-01-17T07:57:32.559Z,0.57
2023-01-17T08:00:06.055Z,0.43
2023-01-17T08:02:39.227Z,0.50
2023-01-17T08:05:12.456Z,1.17
2023-01-17T08:07:45.635Z,0.50
2023-01-17T08:10:19.072Z,0.80
2023-01-17T08:12:52.509Z,0.50
2023-01-17T08:15:26.659Z,1.00
2023-01-17T08:18:00.175Z,0.50
2023-01-17T08:20:33.368Z,1.17
2023-01-17T08:23:06.584Z,1.00
2023-01-17T08:25:39.903Z,0.50
2023-01-17T08:28:13.402Z,0.73
2023-01-17T08:30:46.669Z,0.50
2023-01-17T08:33:19.910Z,0.67
2023-01-17T08:35:53.917Z,0.80
2023-01-17T08:38:27.188Z,1.03
2023-01-17T08:41:03.423Z,0.40
2023-01-17T08:43:36.571Z,0.50
2023-01-17T08:46:09.876Z,0.70
2023-01-17T08:48:43.427Z,0.50
2023-01-17T08:51:16.682Z,0.60
2023-01-17T08:53:49.907Z,0.70
2023-01-17T08:56:26.871Z,0.50
2023-01-17T08:59:00.213Z,0.50
2023-01-17T09:01:40.674Z,1.47
2023-01-17T09:04:14.808Z,0.40
2023-01-17T09:06:48.808Z,0.90
2023-01-17T09:09:21.970Z,0.60
2023-01-17T09:11:55.179Z,0.70
2023-01-17T09:14:28.359Z,0.60
2023-01-17T09:17:02.039Z,0.50
2023-01-17T09:19:35.562Z,0.60
2023-01-17T09:22:10.073Z,0.50
2023-01-17T09:24:43.319Z,1.30
2023-01-17T09:27:16.571Z,0.40
2023-01-17T09:29:49.894Z,0.53
2023-01-17T09:32:23.150Z,0.50
2023-01-17T09:35:00.989Z,0.47
2023-01-17T09:37:34.304Z,0.87
2023-01-17T09:40:07.953Z,0.50
2023-01-17T09:42:41.674Z,0.40
2023-01-17T09:45:19.395Z,1.00
2023-01-17T09:47:54.459Z,0.93
2023-01-17T09:50:45.263Z,0.40
2023-01-17T09:53:22.436Z,0.50
2023-01-17T09:56:05.364Z,0.80
2023-01-17T09:58:47.340Z,0.40
2023-01-17T10:01:29.812Z,0.57
2023-01-17T10:04:15.470Z,0.50
2023-01-17T10:06:57.965Z,0.73
2023-01-17T10:09:45.753Z,0.97
2023-01-17T10:12:18.973Z,0.50
2023-01-17T10:15:10.235Z,0.70
2023-01-17T10:17:46.173Z,0.57
2023-01-17T10:20:19.423Z,0.50
2023-01-17T10:23:02.004Z,1.17
2023-01-17T10:25:44.506Z,0.40
2023-01-17T10:28:21.056Z,0.50
2023-01-17T10:31:15.285Z,0.50
2023-01-17T10:33:52.843Z,0.50
2023-01-17T10:36:32.289Z,0.77
2023-01-17T10:39:14.616Z,0.50
2023-01-17T10:42:07.089Z,0.50
2023-01-17T10:44:58.908Z,0.47
2023-01-17T10:47:35.082Z,0.50
2023-01-17T10:50:13.140Z,0.53
2023-01-17T10:52:50.790Z,0.60
2023-01-17T10:55:34.939Z,0.60
2023-01-17T10:58:14.645Z,0.50
2023-01-17T11:00:54.487Z,0.50
2023-01-17T11:03:28.665Z,0.50
2023-01-17T11:06:20.803Z,0.73
2023-01-17T11:09:02.088Z,0.50
2023-01-17T11:11:37.981Z,0.40
2023-01-17T11:14:21.807Z,1.37
2023-01-17T11:17:05.458Z,0.50
2023-01-17T11:19:39.466Z,0.80
2023-01-17T11:22:14.790Z,0.50
2023-01-17T11:24:49.708Z,0.70
2023-01-17T11:27:30.777Z,0.40
2023-01-17T11:30:07.138Z,0.50
2023-01-17T11:32:52.714Z,0.50
2023-01-17T11:35:27.231Z,0.50
2023-01-17T11:38:05.836Z,0.50
2023-01-17T11:40:41.159Z,0.40
2023-01-17T11:43:29.707Z,0.43
2023-01-17T11:46:03.032Z,0.50
2023-01-17T11:48:38.409Z,0.40
2023-01-17T11:51:30.249Z,0.40
2023-01-17T11:54:09.770Z,0.40
2023-01-17T11:56:46.151Z,0.50
2023-01-17T11:59:28.620Z,0.97
2023-01-17T12:02:04.755Z,0.50
2023-01-17T12:04:43.465Z,0.70
2023-01-17T12:07:52.527Z,0.40
2023-01-17T12:10:28.495Z,0.90
2023-01-17T12:13:20.546Z,0.50
2023-01-17T12:16:32.077Z,0.50
2023-01-17T12:19:08.560Z,1.87
2023-01-17T12:21:49.243Z,0.40
2023-01-17T12:24:54.916Z,0.70
2023-01-17T12:27:43.626Z,0.40
2023-01-17T12:30:17.254Z,0.93
2023-01-17T12:32:53.462Z,0.60
2023-01-17T12:35:30.780Z,0.50
2023-01-17T12:38:06.648Z,0.40
2023-01-17T12:40:46.161Z,0.43
2023-01-17T12:43:39.577Z,0.70
2023-01-17T12:46:21.087Z,0.40
2023-01-17T12:49:02.242Z,0.60
2023-01-17T12:51:39.658Z,1.53
2023-01-17T12:54:31.629Z,0.50
2023-01-17T12:57:09.946Z,1.00
2023-01-17T12:59:46.312Z,0.50
2023-01-17T13:02:23.465Z,0.97
2023-01-17T13:05:05.415Z,0.73
2023-01-17T13:07:38.676Z,0.50
2023-01-17T13:10:23.851Z,0.50
2023-01-17T13:12:58.681Z,0.80
2023-01-17T13:15:37.528Z,1.67
2023-01-17T13:18:22.796Z,0.50
2023-01-17T13:20:59.334Z,0.77
2023-01-17T13:23:51.423Z,0.50
2023-01-17T13:26:39.175Z,0.80
2023-01-17T13:29:30.981Z,1.00
2023-01-17T13:32:15.811Z,1.43
2023-01-17T13:34:49.064Z,0.77
2023-01-17T13:37:34.493Z,0.50
2023-01-17T13:40:28.027Z,2.10
2023-01-17T13:43:03.541Z,0.40
2023-01-17T13:45:37.368Z,0.50
2023-01-17T13:48:30.853Z,0.40
2023-01-17T13:51:11.534Z,1.33
2023-01-17T13:53:44.688Z,0.50
2023-01-17T13:56:20.697Z,0.50
2023-01-17T13:59:02.536Z,0.73
2023-01-17T14:01:38.524Z,0.83
2023-01-17T14:04:14.978Z,0.90
2023-01-17T14:06:50.008Z,0.50
2023-01-17T14:09:42.515Z,1.17
2023-01-17T14:12:21.799Z,0.83
2023-01-17T14:14:56.664Z,0.70
2023-01-17T14:17:37.498Z,0.40
2023-01-17T14:20:12.531Z,0.50
2023-01-17T14:22:52.411Z,0.60
2023-01-17T14:25:28.607Z,0.60
2023-01-17T14:28:20.639Z,0.43
2023-01-17T14:30:56.175Z,0.40
2023-01-17T14:33:31.224Z,0.50
2023-01-17T14:36:06.451Z,0.87
2023-01-17T14:38:43.680Z,0.50
2023-01-17T14:41:27.744Z,0.40
2023-01-17T14:44:01.224Z,0.50
2023-01-17T14:46:36.013Z,1.00
2023-01-17T14:49:24.189Z,1.00
2023-01-17T14:52:04.678Z,0.50
2023-01-17T14:54:37.944Z,0.60
2023-01-17T15:00:40.650Z,0.90
2023-01-17T15:03:14.011Z,0.80
2023-01-17T15:05:49.062Z,1.00
2023-01-17T15:08:24.290Z,0.60
2023-01-17T15:11:03.057Z,1.03
2023-01-17T15:13:44.867Z,1.90
2023-01-17T15:16:23.973Z,0.60
2023-01-17T15:19:00.931Z,0.50
2023-01-17T15:21:42.580Z,0.70
2023-01-17T15:24:20.731Z,0.60
2023-01-17T15:26:54.652Z,1.30
2023-01-17T15:29:29.980Z,0.97
2023-01-17T15:32:04.688Z,0.50
2023-01-17T15:34:38.613Z,0.70
2023-01-17T15:37:30.429Z,0.93
2023-01-17T15:40:03.603Z,0.60
2023-01-17T15:42:37.912Z,0.73
2023-01-17T15:45:15.421Z,0.50
2023-01-17T15:47:48.946Z,0.57
2023-01-17T15:50:26.574Z,2.00
2023-01-17T15:53:04.765Z,0.93
2023-01-17T15:55:39.087Z,3.07
2023-01-17T15:58:25.930Z,1.87
2023-01-17T16:01:00.262Z,1.53
2023-01-17T16:03:33.607Z,1.23
2023-01-17T16:06:26.805Z,1.23
2023-01-17T16:08:59.983Z,0.47
2023-01-17T16:11:33.163Z,1.40
2023-01-17T16:14:07.912Z,0.80
2023-01-17T16:16:49.000Z,1.50
2023-01-17T16:19:22.619Z,0.80
2023-01-17T16:21:57.085Z,0.93
2023-01-17T16:24:31.377Z,1.50
2023-01-17T16:27:04.620Z,0.70
2023-01-17T16:29:37.887Z,1.90
2023-01-17T16:32:11.082Z,1.43
2023-01-17T16:34:44.342Z,2.90
2023-01-17T16:37:17.532Z,1.73
2023-01-17T16:39:50.716Z,0.73
2023-01-17T16:42:23.889Z,0.70
2023-01-17T16:44:57.083Z,1.57
2023-01-17T16:47:30.291Z,0.70
2023-01-17T16:50:03.523Z,0.50
2023-01-17T16:52:36.897Z,0.50
2023-01-17T16:55:13.017Z,0.50
2023-01-17T16:57:46.189Z,1.33
2023-01-17T17:00:19.577Z,0.60
2023-01-17T17:02:53.332Z,0.70
2023-01-17T17:05:26.681Z,0.63
2023-01-17T17:08:00.215Z,2.77
2023-01-17T17:10:33.430Z,2.00
2023-01-17T17:13:06.732Z,0.97
2023-01-17T17:15:46.298Z,2.10
2023-01-17T17:18:19.587Z,1.73
2023-01-17T17:20:52.762Z,1.27
2023-01-17T17:23:25.937Z,1.23
2023-01-17T17:25:59.320Z,2.70
2023-01-17T17:28:32.525Z,2.50
2023-01-17T17:31:07.668Z,2.37
2023-01-17T17:33:40.935Z,3.03
2023-01-17T17:36:14.231Z,1.43
2023-01-17T17:38:53.589Z,1.83
2023-01-17T17:41:27.919Z,2.23
2023-01-17T17:44:01.927Z,2.03
2023-01-17T17:46:36.931Z,0.97
2023-01-17T17:49:10.231Z,1.70
2023-01-17T17:51:44.852Z,1.30
2023-01-17T17:54:18.522Z,2.23
2023-01-17T17:56:52.180Z,0.90
2023-01-17T17:59:25.431Z,1.37
2023-01-17T18:01:59.732Z,2.60
2023-01-17T18:04:33.071Z,1.77
2023-01-17T18:07:06.395Z,2.70
2023-01-17T18:09:39.664Z,2.20
2023-01-17T18:12:12.938Z,1.83
2023-01-17T18:14:46.340Z,2.47
2023-01-17T18:17:20.385Z,1.37
2023-01-17T18:19:53.652Z,1.03
2023-01-17T18:22:26.862Z,0.60
2023-01-17T18:25:00.087Z,0.90
2023-01-17T18:27:33.293Z,0.80
2023-01-17T18:30:07.168Z,1.13
2023-01-17T18:32:40.352Z,0.67
2023-01-17T18:35:13.588Z,1.03
2023-01-17T18:37:46.778Z,1.27
2023-01-17T18:40:20.190Z,1.80
2023-01-17T18:42:53.722Z,3.10
2023-01-17T18:45:27.121Z,1.80
2023-01-17T18:48:02.534Z,1.00
2023-01-17T18:50:35.743Z,1.63
2023-01-17T18:53:08.950Z,2.40
2023-01-17T18:55:42.179Z,2.90
2023-01-17T18:58:15.339Z,3.03
2023-01-17T19:00:51.464Z,2.73
2023-01-17T19:03:31.496Z,0.90
2023-01-17T19:06:05.786Z,0.70
2023-01-17T19:08:40.100Z,1.27
2023-01-17T19:11:13.620Z,1.63
2023-01-17T19:13:48.578Z,2.00
2023-01-17T19:16:28.031Z,1.53
2023-01-17T19:19:06.929Z,0.80
2023-01-17T19:21:40.198Z,1.13
2023-01-17T19:24:14.377Z,1.40
2023-01-17T19:26:51.250Z,1.90
2023-01-17T19:29:26.712Z,2.40
2023-01-17T19:32:00.038Z,1.73
2023-01-17T19:34:33.233Z,0.93
2023-01-17T19:37:07.257Z,1.67
2023-01-17T19:39:40.441Z,1.37
2023-01-17T19:42:15.669Z,0.63
2023-01-17T19:44:48.888Z,2.63
2023-01-17T19:47:22.082Z,1.83
2023-01-17T19:49:55.314Z,1.10
2023-01-17T19:52:30.413Z,0.70
2023-01-17T19:55:04.224Z,1.27
2023-01-17T19:57:40.496Z,2.10
2023-01-17T20:00:14.284Z,1.10
2023-01-17T20:02:47.496Z,1.77
2023-01-17T20:05:21.090Z,3.37
2023-01-17T20:07:54.608Z,1.50
2023-01-17T20:10:27.963Z,1.33
2023-01-17T20:13:01.196Z,1.37
2023-01-17T20:15:34.858Z,0.90
2023-01-17T20:18:08.060Z,2.10
2023-01-17T20:20:56.242Z,2.63
2023-01-17T20:23:30.468Z,1.83
2023-01-17T20:26:04.522Z,2.43
2023-01-17T20:28:38.726Z,1.13
2023-01-17T20:31:15.836Z,3.03
2023-01-17T20:33:52.534Z,1.90
2023-01-17T20:36:29.024Z,2.33
2023-01-17T20:39:03.474Z,2.10
2023-01-17T20:41:37.839Z,2.60
2023-01-17T20:44:12.969Z,3.83
2023-01-17T20:46:47.943Z,5.20
2023-01-17T20:49:21.846Z,2.77
2023-01-17T20:51:55.506Z,4.60
2023-01-17T20:54:28.683Z,4.03
2023-01-17T20:57:01.909Z,1.90
2023-01-17T20:59:35.118Z,3.80
2023-01-17T21:02:10.635Z,2.90
2023-01-17T21:04:45.364Z,1.80
2023-01-17T21:07:18.752Z,2.67
2023-01-17T21:09:52.288Z,2.40
2023-01-17T21:12:25.487Z,1.87
2023-01-17T21:14:58.683Z,2.70
2023-01-17T21:17:33.736Z,1.17
2023-01-17T21:20:08.268Z,2.20
2023-01-17T21:22:41.808Z,4.27
2023-01-17T21:25:15.188Z,3.20
2023-01-17T21:27:48.353Z,1.37
2023-01-17T21:30:21.584Z,1.30
2023-01-17T21:32:54.719Z,2.70
2023-01-17T21:35:29.038Z,1.97
2023-01-17T21:38:02.269Z,1.50
2023-01-17T21:40:35.642Z,0.70
2023-01-17T21:43:09.213Z,1.00
2023-01-17T21:45:43.088Z,2.40
2023-01-17T21:48:16.280Z,1.40
2023-01-17T21:50:52.454Z,1.20
2023-01-17T21:53:27.602Z,1.57
2023-01-17T21:56:20.184Z,2.27
2023-01-17T21:58:56.553Z,1.70
2023-01-17T22:01:32.901Z,0.87
2023-01-17T22:04:06.311Z,0.63
2023-01-17T22:06:39.659Z,1.00
2023-01-17T22:09:14.988Z,2.20
2023-01-17T22:11:48.181Z,2.23
2023-01-17T22:14:21.356Z,0.67
2023-01-17T22:16:54.571Z,0.97
2023-01-17T22:19:27.769Z,2.27
2023-01-17T22:22:00.984Z,2.30
2023-01-17T22:24:34.218Z,2.77
2023-01-17T22:27:10.493Z,4.20
2023-01-17T22:29:43.733Z,1.00
2023-01-17T22:32:16.909Z,1.70
2023-01-17T22:34:50.231Z,1.73
2023-01-17T22:37:23.497Z,0.80
2023-01-17T22:39:56.924Z,1.13
2023-01-17T22:42:30.286Z,1.13
2023-01-17T22:45:03.902Z,1.03
2023-01-17T22:47:37.779Z,1.93
2023-01-17T22:50:11.412Z,1.40
2023-01-17T22:52:44.615Z,0.97
2023-01-17T22:55:19.208Z,0.60
2023-01-17T22:57:52.415Z,1.27
2023-01-17T23:00:25.572Z,1.57
2023-01-17T23:02:59.198Z,2.20
2023-01-17T23:05:32.619Z,0.90
2023-01-17T23:08:08.513Z,1.47
2023-01-17T23:11:01.427Z,0.93
2023-01-17T23:13:34.627Z,2.87
2023-01-17T23:16:26.566Z,2.63
2023-01-17T23:19:18.605Z,2.23
2023-01-17T23:22:11.871Z,1.87
2023-01-17T23:24:58.728Z,1.83
2023-01-17T23:27:55.440Z,3.67
2023-01-17T23:30:35.942Z,0.80
2023-01-17T23:33:13.638Z,1.70
2023-01-17T23:35:47.217Z,2.10
2023-01-17T23:38:28.476Z,2.00
2023-01-17T23:41:27.091Z,0.93
2023-01-17T23:44:00.339Z,1.27
2023-01-17T23:46:33.580Z,0.60
2023-01-17T23:49:06.835Z,2.20
2023-01-17T23:51:40.058Z,1.10
2023-01-17T23:54:13.271Z,2.10
2023-01-17T23:56:46.473Z,1.90
2023-01-17T23:59:19.624Z,3.07
